createdAt,value
2019-04-11T00:00:43.770Z,11.33
2019-04-11T00:01:52.985Z,10.10
2019-04-11T00:02:57.780Z,10.78
2019-04-11T00:04:03.990Z,10.95
2019-04-11T00:05:09.138Z,11.03
2019-04-11T00:06:15.087Z,9.55
2019-04-11T00:07:20.443Z,10.72
2019-04-11T00:08:25.992Z,10.68
2019-04-11T00:09:32.564Z,11.10
2019-04-11T00:10:37.857Z,11.40
2019-04-11T00:11:44.112Z,11.28
2019-04-11T00:12:50.389Z,12.03
2019-04-11T00:13:55.784Z,10.48
2019-04-11T00:15:00.870Z,11.33
2019-04-11T00:16:06.915Z,11.33
2019-04-11T00:17:12.113Z,11.33
2019-04-11T00:18:17.207Z,11.22
2019-04-11T00:19:23.197Z,10.50
2019-04-11T00:20:29.424Z,11.15
2019-04-11T00:21:34.964Z,10.68
2019-04-11T00:22:40.133Z,10.68
2019-04-11T00:23:46.080Z,10.38
2019-04-11T00:24:51.464Z,11.08
2019-04-11T00:25:56.493Z,10.85
2019-04-11T00:27:02.489Z,10.40
2019-04-11T00:28:07.897Z,10.60
2019-04-11T00:29:14.264Z,10.25
2019-04-11T00:30:19.921Z,10.80
2019-04-11T00:31:25.201Z,11.65
2019-04-11T00:32:30.330Z,9.90
2019-04-11T00:33:35.505Z,11.20
2019-04-11T00:34:40.545Z,10.25
2019-04-11T00:35:46.053Z,10.88
2019-04-11T00:36:51.203Z,9.90
2019-04-11T00:37:57.155Z,10.58
2019-04-11T00:39:03.438Z,10.90
2019-04-11T00:40:10.990Z,10.32
2019-04-11T00:41:17.519Z,10.80
2019-04-11T00:42:22.860Z,10.85
2019-04-11T00:43:34.308Z,10.03
2019-04-11T00:44:34.814Z,11.50
2019-04-11T00:45:40.117Z,11.30
2019-04-11T00:46:45.306Z,10.00
2019-04-11T00:47:50.328Z,10.13
2019-04-11T00:48:55.452Z,11.20
2019-04-11T00:50:01.010Z,11.28
2019-04-11T00:51:06.356Z,11.22
2019-04-11T00:52:12.102Z,11.93
2019-04-11T00:53:18.906Z,10.75
2019-04-11T00:54:24.796Z,9.73
2019-04-11T00:55:31.362Z,10.60
2019-04-11T00:56:36.774Z,11.45
2019-04-11T00:57:41.931Z,10.70
2019-04-11T00:58:48.109Z,10.95
2019-04-11T00:59:54.332Z,11.63
2019-04-11T01:00:59.763Z,10.98
2019-04-11T01:02:05.565Z,10.98
2019-04-11T01:03:11.745Z,10.50
2019-04-11T01:04:17.900Z,10.32
2019-04-11T01:05:23.547Z,11.00
2019-04-11T01:06:30.080Z,10.25
2019-04-11T01:07:35.376Z,10.53
2019-04-11T01:08:40.418Z,10.38
2019-04-11T01:09:45.518Z,11.57
2019-04-11T01:10:51.738Z,10.40
2019-04-11T01:11:56.965Z,10.78
2019-04-11T01:13:02.049Z,10.20
2019-04-11T01:14:07.850Z,10.13
2019-04-11T01:15:15.465Z,10.55
2019-04-11T01:16:45.617Z,11.08
2019-04-11T01:17:51.741Z,10.43
2019-04-11T01:18:56.899Z,10.95
2019-04-11T01:20:02.922Z,11.18
2019-04-11T01:21:08.263Z,10.32
2019-04-11T01:22:14.012Z,11.45
2019-04-11T01:23:19.240Z,10.30
2019-04-11T01:24:24.288Z,9.98
2019-04-11T01:25:30.584Z,10.65
2019-04-11T01:26:37.099Z,10.95
2019-04-11T01:27:42.603Z,10.15
2019-04-11T01:28:47.745Z,10.20
2019-04-11T01:29:52.773Z,11.50
2019-04-11T01:31:09.464Z,10.43
2019-04-11T01:32:14.630Z,10.82
2019-04-11T01:33:20.632Z,10.80
2019-04-11T01:34:26.678Z,9.63
2019-04-11T01:35:33.133Z,10.70
2019-04-11T01:36:39.373Z,10.15
2019-04-11T01:37:44.467Z,10.32
2019-04-11T01:38:52.905Z,10.00
2019-04-11T01:40:02.422Z,11.33
2019-04-11T01:41:07.610Z,11.22
2019-04-11T01:42:13.244Z,10.10
2019-04-11T01:43:18.418Z,10.68
2019-04-11T01:44:23.432Z,10.85
2019-04-11T01:45:29.514Z,11.65
2019-04-11T01:46:34.777Z,10.88
2019-04-11T01:47:57.377Z,10.53
2019-04-11T01:49:12.263Z,11.00
2019-04-11T01:50:23.056Z,10.60
2019-04-11T01:51:28.159Z,10.65
2019-04-11T01:52:34.156Z,11.08
2019-04-11T01:53:40.657Z,10.48
2019-04-11T01:54:46.228Z,10.70
2019-04-11T01:55:51.274Z,9.70
2019-04-11T01:56:57.877Z,11.55
2019-04-11T01:58:03.138Z,10.53
2019-04-11T01:59:08.172Z,9.88
2019-04-11T02:00:26.131Z,10.90
2019-04-11T02:01:39.056Z,10.20
2019-04-11T02:02:54.843Z,10.00
2019-04-11T02:04:21.537Z,10.08
2019-04-11T02:05:29.335Z,9.75
2019-04-11T02:06:34.605Z,10.78
2019-04-11T02:07:39.713Z,11.33
2019-04-11T02:08:44.743Z,11.63
2019-04-11T02:09:50.516Z,11.55
2019-04-11T02:10:55.753Z,10.95
2019-04-11T02:12:01.665Z,10.23
2019-04-11T02:13:07.847Z,9.90
2019-04-11T02:14:16.487Z,10.70
2019-04-11T02:15:19.972Z,11.05
2019-04-11T02:16:25.234Z,10.75
2019-04-11T02:17:30.725Z,10.20
2019-04-11T02:18:35.807Z,11.18
2019-04-11T02:19:41.112Z,10.23
2019-04-11T02:20:47.250Z,11.05
2019-04-11T02:21:54.389Z,10.53
2019-04-11T02:23:06.803Z,10.70
2019-04-11T02:24:30.019Z,10.60
2019-04-11T02:25:47.084Z,10.23
2019-04-11T02:27:10.596Z,10.60
2019-04-11T02:28:16.974Z,10.75
2019-04-11T02:29:22.154Z,10.65
2019-04-11T02:30:27.918Z,10.82
2019-04-11T02:31:34.977Z,11.00
2019-04-11T02:32:42.656Z,10.48
2019-04-11T02:33:48.832Z,10.18
2019-04-11T02:34:57.084Z,10.28
2019-04-11T02:36:03.184Z,10.72
2019-04-11T02:37:09.273Z,10.10
2019-04-11T02:38:16.373Z,10.32
2019-04-11T02:39:22.955Z,10.65
2019-04-11T02:40:29.949Z,10.93
2019-04-11T02:41:35.900Z,10.38
2019-04-11T02:42:43.201Z,10.48
2019-04-11T02:43:49.008Z,11.03
2019-04-11T02:45:09.219Z,9.88
2019-04-11T02:46:11.986Z,9.60
2019-04-11T02:47:15.543Z,10.32
2019-04-11T02:48:16.274Z,9.73
2019-04-11T02:49:23.418Z,10.25
2019-04-11T02:50:29.967Z,10.40
2019-04-11T02:51:36.838Z,10.00
2019-04-11T02:52:44.426Z,11.28
2019-04-11T02:53:51.797Z,10.40
2019-04-11T02:54:56.957Z,10.53
2019-04-11T02:56:02.756Z,10.60
2019-04-11T02:57:09.870Z,11.15
2019-04-11T02:58:15.409Z,10.82
2019-04-11T02:59:21.563Z,11.28
2019-04-11T03:00:28.702Z,9.98
2019-04-11T03:01:34.723Z,11.40
2019-04-11T03:02:42.407Z,10.90
2019-04-11T03:03:47.524Z,11.40
2019-04-11T03:04:53.021Z,11.97
2019-04-11T03:05:59.798Z,10.95
2019-04-11T03:07:05.878Z,10.08
2019-04-11T03:08:15.570Z,10.93
2019-04-11T03:09:19.588Z,10.55
2019-04-11T03:10:24.970Z,10.93
2019-04-11T03:11:30.346Z,10.78
2019-04-11T03:12:36.012Z,11.68
2019-04-11T03:13:44.425Z,10.78
2019-04-11T03:15:10.998Z,10.75
2019-04-11T03:16:12.681Z,11.73
2019-04-11T03:17:14.043Z,11.38
2019-04-11T03:18:12.536Z,12.25
2019-04-11T03:19:29.758Z,11.57
2019-04-11T03:20:32.573Z,11.63
2019-04-11T03:21:36.625Z,10.55
2019-04-11T03:22:38.496Z,11.15
2019-04-11T03:23:44.180Z,11.43
2019-04-11T03:24:51.067Z,10.65
2019-04-11T03:25:56.832Z,11.28
2019-04-11T03:27:04.798Z,11.78
2019-04-11T03:28:13.607Z,11.15
2019-04-11T03:29:17.769Z,10.23
2019-04-11T03:30:34.931Z,11.18
2019-04-11T03:32:13.801Z,11.12
2019-04-11T03:33:25.394Z,11.70
2019-04-11T03:34:29.758Z,11.00
2019-04-11T03:35:37.753Z,10.85
2019-04-11T03:36:56.613Z,10.60
2019-04-11T03:37:29.657Z,11.20
2019-04-11T03:38:38.490Z,11.97
2019-04-11T03:39:41.317Z,11.05
2019-04-11T03:40:48.194Z,10.78
2019-04-11T03:41:52.348Z,12.05
2019-04-11T03:42:55.521Z,11.43
2019-04-11T03:43:57.988Z,10.13
2019-04-11T03:45:18.142Z,11.65
2019-04-11T03:46:20.470Z,10.65
2019-04-11T03:47:20.296Z,11.55
2019-04-11T03:48:29.211Z,11.30
2019-04-11T03:49:32.907Z,10.63
2019-04-11T03:50:31.986Z,11.00
2019-04-11T03:51:36.435Z,13.22
2019-04-11T03:52:43.099Z,11.75
2019-04-11T03:53:49.083Z,11.22
2019-04-11T03:54:56.020Z,11.03
2019-04-11T03:56:01.774Z,10.63
2019-04-11T03:57:09.719Z,11.78
2019-04-11T03:58:15.432Z,11.80
2019-04-11T03:59:23.359Z,12.60
2019-04-11T04:00:32.151Z,12.68
2019-04-11T04:01:35.557Z,12.43
2019-04-11T04:02:41.285Z,12.37
2019-04-11T04:03:46.791Z,12.23
2019-04-11T04:04:54.025Z,12.30
2019-04-11T04:06:01.782Z,12.05
2019-04-11T04:07:07.314Z,12.37
2019-04-11T04:08:13.728Z,12.20
2019-04-11T04:09:20.724Z,12.65
2019-04-11T04:10:27.698Z,12.53
2019-04-11T04:11:34.676Z,14.00
2019-04-11T04:12:40.355Z,13.28
2019-04-11T04:13:53.721Z,14.07
2019-04-11T04:15:08.301Z,12.53
2019-04-11T04:16:34.236Z,13.05
2019-04-11T04:18:09.982Z,12.55
2019-04-11T04:19:27.114Z,12.13
2019-04-11T04:20:53.123Z,12.53
2019-04-11T04:22:05.057Z,12.53
2019-04-11T04:23:18.809Z,12.47
2019-04-11T04:24:34.759Z,13.22
2019-04-11T04:25:39.179Z,13.03
2019-04-11T04:26:45.025Z,12.60
2019-04-11T04:27:51.307Z,12.73
2019-04-11T04:28:57.790Z,11.97
2019-04-11T04:30:05.209Z,12.75
2019-04-11T04:31:11.449Z,12.60
2019-04-11T04:32:18.538Z,11.60
2019-04-11T04:33:23.940Z,12.30
2019-04-11T04:34:28.959Z,12.28
2019-04-11T04:35:36.198Z,12.70
2019-04-11T04:36:42.244Z,12.75
2019-04-11T04:37:49.593Z,12.45
2019-04-11T04:38:56.919Z,12.78
2019-04-11T04:40:21.201Z,12.73
2019-04-11T04:41:22.465Z,13.08
2019-04-11T04:42:26.332Z,12.05
2019-04-11T04:43:27.323Z,12.18
2019-04-11T04:44:33.403Z,13.65
2019-04-11T04:46:01.619Z,13.70
2019-04-11T04:46:58.163Z,13.30
2019-04-11T04:47:58.778Z,13.95
2019-04-11T04:48:59.116Z,11.95
2019-04-11T04:50:06.385Z,12.98
2019-04-11T04:51:13.661Z,12.78
2019-04-11T04:52:18.831Z,12.93
2019-04-11T04:53:26.656Z,12.30
2019-04-11T04:54:33.416Z,12.10
2019-04-11T04:55:38.862Z,14.03
2019-04-11T04:56:46.035Z,14.70
2019-04-11T04:57:51.182Z,21.23
2019-04-11T04:58:58.544Z,28.05
2019-04-11T05:00:06.607Z,20.25
2019-04-11T05:01:12.663Z,15.20
2019-04-11T05:02:20.049Z,14.63
2019-04-11T05:03:26.565Z,13.40
2019-04-11T05:04:33.719Z,13.43
2019-04-11T05:05:38.959Z,12.50
2019-04-11T05:06:46.717Z,11.78
2019-04-11T05:07:52.007Z,12.60
2019-04-11T05:09:00.039Z,12.50
2019-04-11T05:10:08.316Z,13.20
2019-04-11T05:11:13.843Z,12.58
2019-04-11T05:12:20.536Z,12.50
2019-04-11T05:13:26.015Z,12.50
2019-04-11T05:14:31.730Z,12.47
2019-04-11T05:15:36.886Z,12.23
2019-04-11T05:16:41.997Z,12.68
2019-04-11T05:17:47.058Z,11.35
2019-04-11T05:18:52.548Z,11.08
2019-04-11T05:19:58.545Z,11.65
2019-04-11T05:21:03.853Z,10.72
2019-04-11T05:22:09.257Z,11.60
2019-04-11T05:23:14.372Z,11.88
2019-04-11T05:24:19.402Z,10.75
2019-04-11T05:25:24.485Z,10.90
2019-04-11T05:26:29.597Z,11.95
2019-04-11T05:27:35.734Z,11.50
2019-04-11T05:28:41.041Z,10.13
2019-04-11T05:29:46.246Z,10.72
2019-04-11T05:30:51.652Z,11.08
2019-04-11T05:31:56.754Z,10.78
2019-04-11T05:33:01.923Z,11.45
2019-04-11T05:34:07.803Z,9.98
2019-04-11T05:35:14.358Z,11.90
2019-04-11T05:36:20.656Z,10.63
2019-04-11T05:37:26.895Z,11.68
2019-04-11T05:38:32.774Z,10.78
2019-04-11T05:39:38.149Z,9.93
2019-04-11T05:40:43.287Z,11.12
2019-04-11T05:41:48.743Z,10.58
2019-04-11T05:42:55.739Z,9.80
2019-04-11T05:44:03.522Z,11.03
2019-04-11T05:45:15.220Z,10.15
2019-04-11T05:46:26.362Z,10.80
2019-04-11T05:47:21.549Z,9.88
2019-04-11T05:48:50.633Z,9.35
2019-04-11T05:50:24.327Z,10.50
2019-04-11T05:51:36.859Z,10.40
2019-04-11T05:52:37.978Z,9.55
2019-04-11T05:53:43.767Z,10.63
2019-04-11T05:54:52.551Z,10.08
2019-04-11T05:55:59.459Z,9.38
2019-04-11T05:57:04.635Z,9.93
2019-04-11T05:58:12.741Z,11.48
2019-04-11T05:59:21.574Z,9.63
2019-04-11T06:01:05.400Z,10.58
2019-04-11T06:02:17.672Z,10.18
2019-04-11T06:03:23.925Z,9.75
2019-04-11T06:04:36.400Z,10.03
2019-04-11T06:06:00.728Z,10.90
2019-04-11T06:07:13.947Z,10.15
2019-04-11T06:08:25.424Z,9.13
2019-04-11T06:09:33.763Z,9.53
2019-04-11T06:10:54.817Z,9.43
2019-04-11T06:12:17.799Z,9.43
2019-04-11T06:13:28.712Z,9.58
2019-04-11T06:14:59.712Z,10.10
2019-04-11T06:16:06.231Z,9.40
2019-04-11T06:17:14.712Z,9.15
2019-04-11T06:18:43.179Z,9.08
2019-04-11T06:20:03.982Z,8.95
2019-04-11T06:21:24.271Z,10.10
2019-04-11T06:22:29.701Z,9.85
2019-04-11T06:23:53.980Z,8.90
2019-04-11T06:25:16.700Z,9.30
2019-04-11T06:26:49.144Z,9.60
2019-04-11T06:28:02.085Z,9.43
2019-04-11T06:29:17.465Z,8.88
2019-04-11T06:30:48.559Z,9.75
2019-04-11T06:32:11.750Z,8.80
2019-04-11T06:33:22.992Z,10.63
2019-04-11T06:34:31.137Z,8.83
2019-04-11T06:36:02.078Z,9.38
2019-04-11T06:37:27.716Z,9.98
2019-04-11T06:38:58.754Z,10.15
2019-04-11T06:40:11.714Z,9.00
2019-04-11T06:41:29.128Z,9.08
2019-04-11T06:42:59.878Z,9.38
2019-04-11T06:44:14.353Z,9.98
2019-04-11T06:45:37.720Z,9.20
2019-04-11T06:47:12.480Z,8.78
2019-04-11T06:48:45.991Z,9.70
2019-04-11T06:50:01.240Z,9.15
2019-04-11T06:51:19.862Z,10.03
2019-04-11T06:52:26.599Z,9.23
2019-04-11T06:53:36.389Z,9.88
2019-04-11T06:54:59.286Z,9.60
2019-04-11T06:56:16.880Z,10.25
2019-04-11T06:57:23.817Z,9.55
2019-04-11T06:58:33.074Z,9.78
2019-04-11T06:59:42.844Z,9.40
2019-04-11T07:00:53.617Z,8.95
2019-04-11T07:02:13.373Z,9.93
2019-04-11T07:03:19.613Z,9.43
2019-04-11T07:04:30.779Z,10.63
2019-04-11T07:05:37.065Z,10.68
2019-04-11T07:06:44.075Z,10.08
2019-04-11T07:07:51.647Z,9.95
2019-04-11T07:09:12.525Z,9.75
2019-04-11T07:10:20.298Z,10.13
2019-04-11T07:11:34.114Z,9.60
2019-04-11T07:12:57.638Z,10.05
2019-04-11T07:14:14.481Z,9.95
2019-04-11T07:15:51.226Z,9.90
2019-04-11T07:17:15.509Z,9.65
2019-04-11T07:18:36.231Z,11.00
2019-04-11T07:20:02.513Z,11.05
2019-04-11T07:21:10.610Z,10.23
2019-04-11T07:22:34.869Z,10.13
2019-04-11T07:23:58.031Z,11.05
2019-04-11T07:25:27.298Z,10.82
2019-04-11T07:26:38.194Z,10.95
2019-04-11T07:27:59.320Z,10.58
2019-04-11T07:29:23.915Z,11.45
2019-04-11T07:30:54.459Z,11.93
2019-04-11T07:32:30.791Z,10.50
2019-04-11T07:33:51.876Z,10.13
2019-04-11T07:35:22.184Z,10.55
2019-04-11T07:36:46.231Z,10.70
2019-04-11T07:37:57.970Z,9.58
2019-04-11T07:39:17.149Z,10.40
2019-04-11T07:40:41.213Z,11.18
2019-04-11T07:42:04.729Z,11.33
2019-04-11T07:43:16.915Z,11.60
2019-04-11T07:44:22.197Z,10.23
2019-04-11T07:45:37.677Z,11.15
2019-04-11T07:47:14.547Z,10.70
2019-04-11T07:48:17.287Z,10.23
2019-04-11T07:49:28.529Z,10.80
2019-04-11T07:50:33.708Z,10.70
2019-04-11T07:51:45.121Z,10.80
2019-04-11T07:52:56.248Z,11.00
2019-04-11T07:54:04.826Z,10.43
2019-04-11T07:55:13.090Z,10.63
2019-04-11T07:56:44.793Z,10.60
2019-04-11T07:57:53.033Z,10.28
2019-04-11T07:59:00.839Z,11.05
2019-04-11T08:00:34.929Z,10.60
2019-04-11T08:01:48.196Z,10.93
2019-04-11T08:03:10.170Z,10.95
2019-04-11T08:04:53.335Z,10.88
2019-04-11T08:06:15.536Z,11.55
2019-04-11T08:07:45.580Z,10.75
2019-04-11T08:09:09.659Z,11.10
2019-04-11T08:10:19.105Z,12.00
2019-04-11T08:11:46.261Z,11.83
2019-04-11T08:12:51.948Z,11.10
2019-04-11T08:14:16.222Z,11.63
2019-04-11T08:15:40.416Z,11.85
2019-04-11T08:17:25.461Z,10.98
2019-04-11T08:18:35.038Z,11.95
2019-04-11T08:20:03.030Z,11.35
2019-04-11T08:21:26.245Z,10.63
2019-04-11T08:22:41.196Z,11.20
2019-04-11T08:23:49.061Z,11.48
2019-04-11T08:25:04.942Z,11.63
2019-04-11T08:26:42.243Z,10.93
2019-04-11T08:28:09.351Z,11.50
2019-04-11T08:29:16.025Z,12.00
2019-04-11T08:30:23.224Z,11.35
2019-04-11T08:31:36.488Z,11.65
2019-04-11T08:32:53.965Z,11.73
2019-04-11T08:34:02.776Z,11.75
2019-04-11T08:35:34.922Z,12.70
2019-04-11T08:37:14.292Z,11.78
2019-04-11T08:38:44.794Z,11.78
2019-04-11T08:39:53.380Z,11.68
2019-04-11T08:41:11.419Z,11.75
2019-04-11T08:42:31.699Z,12.28
2019-04-11T08:43:37.462Z,11.65
2019-04-11T08:44:44.108Z,12.13
2019-04-11T08:45:54.120Z,12.35
2019-04-11T08:47:09.866Z,12.68
2019-04-11T08:48:15.241Z,12.68
2019-04-11T08:49:31.757Z,12.63
2019-04-11T08:50:40.812Z,12.90
2019-04-11T08:51:47.370Z,11.93
2019-04-11T08:53:18.604Z,13.00
2019-04-11T08:54:45.866Z,13.60
2019-04-11T08:56:00.211Z,13.25
2019-04-11T08:57:04.593Z,12.43
2019-04-11T08:58:30.944Z,12.95
2019-04-11T08:59:44.150Z,13.28
2019-04-11T09:00:52.792Z,12.05
2019-04-11T09:02:03.164Z,12.07
2019-04-11T09:03:19.651Z,13.10
2019-04-11T09:04:44.343Z,12.90
2019-04-11T09:06:06.546Z,12.33
2019-04-11T09:07:13.627Z,12.65
2019-04-11T09:08:30.224Z,13.05
2019-04-11T09:09:57.743Z,13.32
2019-04-11T09:11:22.537Z,13.30
2019-04-11T09:12:28.790Z,11.93
2019-04-11T09:13:47.318Z,12.68
2019-04-11T09:15:10.745Z,11.93
2019-04-11T09:16:34.012Z,13.62
2019-04-11T09:17:59.088Z,13.60
2019-04-11T09:19:03.658Z,12.90
2019-04-11T09:20:47.695Z,12.78
2019-04-11T09:22:10.950Z,13.10
2019-04-11T09:23:19.745Z,14.18
2019-04-11T09:24:38.886Z,14.30
2019-04-11T09:26:01.842Z,13.13
2019-04-11T09:27:26.785Z,14.13
2019-04-11T09:29:07.326Z,13.48
2019-04-11T09:30:20.978Z,13.45
2019-04-11T09:31:45.652Z,14.00
2019-04-11T09:33:15.107Z,13.32
2019-04-11T09:34:40.237Z,12.85
2019-04-11T09:35:45.749Z,12.85
2019-04-11T09:37:17.675Z,13.95
2019-04-11T09:38:24.417Z,14.60
2019-04-11T09:40:04.206Z,14.23
2019-04-11T09:41:28.198Z,14.60
2019-04-11T09:42:51.305Z,14.58
2019-04-11T09:44:00.130Z,14.15
2019-04-11T09:45:41.724Z,14.23
2019-04-11T09:47:05.426Z,14.07
2019-04-11T09:48:42.304Z,13.70
2019-04-11T09:49:52.209Z,13.85
2019-04-11T09:51:19.041Z,14.07
2019-04-11T09:52:33.224Z,15.00
2019-04-11T09:53:39.263Z,13.48
2019-04-11T09:55:04.411Z,14.90
2019-04-11T09:56:23.124Z,14.43
2019-04-11T09:57:39.761Z,15.50
2019-04-11T09:58:47.536Z,15.00
2019-04-11T10:00:14.389Z,14.63
2019-04-11T10:01:37.552Z,14.73
2019-04-11T10:03:01.738Z,14.73
2019-04-11T10:04:08.762Z,15.10
2019-04-11T10:05:15.973Z,15.55
2019-04-11T10:06:40.990Z,15.32
2019-04-11T10:08:08.590Z,15.80
2019-04-11T10:09:13.783Z,15.13
2019-04-11T10:10:44.901Z,16.75
2019-04-11T10:12:08.447Z,15.55
2019-04-11T10:13:49.048Z,16.57
2019-04-11T10:14:55.663Z,15.38
2019-04-11T10:16:15.805Z,14.90
2019-04-11T10:17:40.118Z,15.68
2019-04-11T10:19:05.490Z,15.58
2019-04-11T10:20:13.101Z,17.37
2019-04-11T10:21:19.323Z,16.67
2019-04-11T10:22:48.081Z,15.20
2019-04-11T10:24:32.648Z,16.10
2019-04-11T10:25:47.694Z,14.93
2019-04-11T10:26:58.649Z,16.60
2019-04-11T10:28:22.715Z,16.27
2019-04-11T10:30:02.016Z,16.45
2019-04-11T10:31:15.006Z,15.40
2019-04-11T10:32:23.303Z,16.05
2019-04-11T10:33:57.399Z,16.50
2019-04-11T10:35:34.568Z,15.28
2019-04-11T10:36:47.417Z,15.35
2019-04-11T10:37:52.794Z,15.25
2019-04-11T10:39:18.189Z,15.15
2019-04-11T10:40:41.967Z,15.55
2019-04-11T10:41:50.446Z,16.95
2019-04-11T10:42:55.960Z,15.53
2019-04-11T10:44:01.443Z,16.15
2019-04-11T10:45:29.115Z,16.37
2019-04-11T10:46:56.190Z,15.60
2019-04-11T10:48:03.561Z,15.80
2019-04-11T10:49:18.120Z,14.87
2019-04-11T10:50:54.379Z,16.30
2019-04-11T10:52:02.625Z,16.17
2019-04-11T10:53:08.873Z,17.12
2019-04-11T10:54:14.152Z,15.48
2019-04-11T10:55:25.841Z,16.42
2019-04-11T10:56:55.958Z,17.00
2019-04-11T10:58:04.645Z,16.80
2019-04-11T10:59:10.305Z,16.10
2019-04-11T11:00:30.000Z,16.45
2019-04-11T11:02:09.243Z,17.20
2019-04-11T11:03:39.371Z,15.60
2019-04-11T11:04:48.554Z,16.55
2019-04-11T11:05:55.500Z,16.00
2019-04-11T11:07:09.688Z,15.70
2019-04-11T11:08:31.790Z,16.20
2019-04-11T11:09:44.342Z,15.88
2019-04-11T11:10:52.069Z,16.75
2019-04-11T11:12:12.738Z,16.00
2019-04-11T11:13:39.074Z,15.48
2019-04-11T11:15:01.556Z,15.28
2019-04-11T11:16:08.921Z,16.57
2019-04-11T11:18:02.220Z,15.28
2019-04-11T11:19:34.941Z,16.27
2019-04-11T11:20:49.896Z,16.15
2019-04-11T11:21:53.684Z,14.87
2019-04-11T11:23:31.104Z,14.85
2019-04-11T11:24:55.240Z,14.68
2019-04-11T11:26:22.901Z,15.15
2019-04-11T11:27:26.920Z,14.68
2019-04-11T11:28:34.122Z,14.70
2019-04-11T11:30:04.035Z,14.65
2019-04-11T11:31:22.359Z,15.53
2019-04-11T11:32:33.674Z,14.70
2019-04-11T11:33:38.800Z,14.78
2019-04-11T11:34:51.289Z,14.25
2019-04-11T11:36:34.874Z,15.48
2019-04-11T11:38:06.003Z,14.80
2019-04-11T11:39:26.895Z,15.93
2019-04-11T11:40:50.118Z,14.35
2019-04-11T11:42:12.778Z,15.43
2019-04-11T11:43:23.595Z,15.10
2019-04-11T11:44:37.209Z,15.28
2019-04-11T11:45:56.605Z,14.43
2019-04-11T11:47:23.733Z,15.10
2019-04-11T11:48:35.586Z,13.78
2019-04-11T11:49:51.728Z,14.93
2019-04-11T11:50:51.355Z,15.50
2019-04-11T11:52:19.230Z,15.15
2019-04-11T11:53:51.453Z,13.98
2019-04-11T11:54:56.841Z,15.78
2019-04-11T11:56:02.409Z,14.85
2019-04-11T11:57:11.102Z,15.10
2019-04-11T11:58:35.352Z,14.15
2019-04-11T11:59:45.940Z,14.47
2019-04-11T12:00:53.854Z,15.45
2019-04-11T12:02:04.414Z,15.90
2019-04-11T12:03:32.967Z,15.58
2019-04-11T12:04:57.220Z,14.95
2019-04-11T12:06:05.268Z,15.68
2019-04-11T12:07:12.646Z,14.65
2019-04-11T12:08:46.591Z,15.80
2019-04-11T12:10:17.431Z,14.20
2019-04-11T12:11:24.015Z,14.60
2019-04-11T12:12:35.851Z,14.83
2019-04-11T12:13:55.789Z,13.98
2019-04-11T12:15:35.137Z,15.05
2019-04-11T12:16:59.497Z,14.50
2019-04-11T12:18:09.581Z,14.65
2019-04-11T12:19:29.038Z,15.43
2019-04-11T12:20:44.372Z,15.55
2019-04-11T12:21:48.974Z,14.50
2019-04-11T12:22:56.920Z,14.10
2019-04-11T12:24:30.112Z,15.55
2019-04-11T12:25:38.975Z,15.95
2019-04-11T12:26:56.045Z,14.65
2019-04-11T12:28:15.265Z,16.00
2019-04-11T12:29:48.812Z,16.70
2019-04-11T12:30:57.970Z,16.25
2019-04-11T12:32:04.161Z,15.65
2019-04-11T12:33:35.270Z,15.15
2019-04-11T12:35:02.054Z,15.35
2019-04-11T12:36:20.731Z,15.55
2019-04-11T12:37:31.688Z,14.28
2019-04-11T12:38:43.985Z,15.32
2019-04-11T12:40:09.508Z,14.03
2019-04-11T12:41:44.832Z,16.05
2019-04-11T12:42:49.939Z,15.83
2019-04-11T12:44:29.455Z,15.95
2019-04-11T12:46:12.761Z,16.45
2019-04-11T12:47:38.644Z,15.00
2019-04-11T12:48:47.397Z,15.83
2019-04-11T12:50:11.461Z,14.33
2019-04-11T12:51:34.406Z,16.30
2019-04-11T12:52:46.290Z,13.90
2019-04-11T12:53:51.378Z,15.65
2019-04-11T12:54:56.758Z,15.05
2019-04-11T12:56:20.832Z,14.98
2019-04-11T12:57:51.217Z,15.30
2019-04-11T12:59:02.180Z,14.50
2019-04-11T13:00:14.704Z,15.20
2019-04-11T13:01:37.838Z,14.73
2019-04-11T13:03:03.025Z,15.68
2019-04-11T13:04:20.974Z,15.98
2019-04-11T13:05:26.307Z,14.87
2019-04-11T13:06:50.356Z,14.60
2019-04-11T13:08:13.469Z,15.88
2019-04-11T13:09:35.133Z,15.53
2019-04-11T13:10:40.897Z,15.32
2019-04-11T13:11:47.317Z,16.57
2019-04-11T13:13:20.575Z,14.38
2019-04-11T13:14:40.015Z,15.23
2019-04-11T13:16:11.814Z,14.85
2019-04-11T13:17:13.876Z,14.00
2019-04-11T13:18:39.697Z,14.53
2019-04-11T13:20:09.625Z,14.78
2019-04-11T13:21:32.245Z,14.65
2019-04-11T13:22:37.297Z,14.20
2019-04-11T13:24:10.230Z,14.65
2019-04-11T13:25:34.316Z,15.32
2019-04-11T13:27:10.377Z,15.45
2019-04-11T13:28:15.503Z,16.00
2019-04-11T13:29:38.668Z,14.20
2019-04-11T13:31:05.759Z,13.85
2019-04-11T13:32:28.975Z,14.50
2019-04-11T13:33:34.105Z,13.62
2019-04-11T13:34:39.489Z,13.22
2019-04-11T13:36:04.501Z,13.40
2019-04-11T13:37:30.146Z,13.75
2019-04-11T13:38:43.145Z,12.95
2019-04-11T13:39:55.665Z,14.10
2019-04-11T13:41:20.427Z,13.40
2019-04-11T13:43:00.879Z,14.55
2019-04-11T13:44:11.817Z,15.78
2019-04-11T13:45:16.861Z,15.53
2019-04-11T13:46:44.005Z,16.40
2019-04-11T13:48:23.441Z,16.85
2019-04-11T13:49:53.194Z,16.95
2019-04-11T13:50:59.280Z,16.20
2019-04-11T13:52:29.741Z,15.93
2019-04-11T13:53:53.318Z,15.10
2019-04-11T13:55:06.964Z,14.93
2019-04-11T13:56:12.303Z,13.60
2019-04-11T13:57:39.196Z,14.80
2019-04-11T13:59:02.335Z,13.90
2019-04-11T14:00:36.629Z,13.88
2019-04-11T14:01:43.241Z,14.38
2019-04-11T14:03:05.707Z,13.93
2019-04-11T14:04:17.664Z,14.28
2019-04-11T14:05:22.810Z,13.78
2019-04-11T14:06:31.855Z,14.63
2019-04-11T14:07:37.198Z,15.15
2019-04-11T14:09:16.716Z,14.95
2019-04-11T14:10:21.828Z,15.08
2019-04-11T14:11:26.954Z,14.03
2019-04-11T14:12:33.329Z,14.47
2019-04-11T14:13:40.759Z,13.98
2019-04-11T14:15:06.280Z,14.63
2019-04-11T14:16:14.630Z,15.15
2019-04-11T14:17:58.230Z,14.20
2019-04-11T14:19:11.737Z,14.93
2019-04-11T14:20:42.110Z,13.65
2019-04-11T14:21:48.511Z,14.78
2019-04-11T14:23:14.793Z,13.85
2019-04-11T14:24:48.829Z,13.72
2019-04-11T14:26:15.926Z,14.68
2019-04-11T14:27:23.980Z,14.38
2019-04-11T14:28:35.480Z,15.32
2019-04-11T14:29:48.704Z,14.80
2019-04-11T14:31:21.808Z,13.68
2019-04-11T14:32:31.615Z,14.25
2019-04-11T14:33:38.006Z,14.63
2019-04-11T14:35:01.028Z,13.62
2019-04-11T14:36:33.721Z,14.23
2019-04-11T14:37:41.724Z,14.70
2019-04-11T14:38:51.959Z,14.40
2019-04-11T14:39:59.106Z,14.63
2019-04-11T14:41:32.306Z,14.58
2019-04-11T14:42:57.936Z,14.78
2019-04-11T14:44:04.118Z,14.03
2019-04-11T14:45:21.463Z,15.70
2019-04-11T14:47:06.868Z,14.75
2019-04-11T14:48:18.533Z,14.23
2019-04-11T14:49:24.037Z,14.90
2019-04-11T14:50:40.936Z,14.68
2019-04-11T14:52:08.914Z,14.15
2019-04-11T14:53:31.776Z,15.10
2019-04-11T14:54:42.517Z,14.47
2019-04-11T14:55:49.505Z,14.60
2019-04-11T14:57:16.488Z,14.43
2019-04-11T14:59:00.211Z,14.55
2019-04-11T15:00:24.137Z,13.85
2019-04-11T15:01:29.884Z,14.28
2019-04-11T15:02:56.919Z,14.23
2019-04-11T15:04:21.681Z,14.95
2019-04-11T15:05:39.761Z,12.93
2019-04-11T15:06:47.971Z,15.28
2019-04-11T15:07:53.150Z,13.90
2019-04-11T15:09:29.380Z,14.55
2019-04-11T15:10:49.696Z,14.95
2019-04-11T15:12:01.684Z,14.87
2019-04-11T15:13:08.137Z,14.75
2019-04-11T15:14:20.220Z,15.20
2019-04-11T15:15:53.210Z,15.18
2019-04-11T15:17:12.032Z,14.95
2019-04-11T15:18:18.818Z,14.55
2019-04-11T15:19:24.005Z,15.00
2019-04-11T15:20:57.121Z,13.83
2019-04-11T15:22:24.410Z,13.83
2019-04-11T15:23:41.387Z,14.75
2019-04-11T15:24:47.728Z,14.50
2019-04-11T15:26:11.774Z,13.98
2019-04-11T15:27:42.625Z,14.90
2019-04-11T15:28:56.632Z,15.28
2019-04-11T15:30:03.324Z,15.40
2019-04-11T15:31:24.779Z,14.73
2019-04-11T15:32:48.925Z,15.45
2019-04-11T15:34:06.842Z,14.80
2019-04-11T15:35:13.902Z,14.03
2019-04-11T15:36:20.052Z,15.48
2019-04-11T15:37:47.205Z,16.17
2019-04-11T15:39:18.321Z,15.75
2019-04-11T15:40:26.584Z,14.95
2019-04-11T15:41:31.790Z,15.15
2019-04-11T15:43:11.559Z,15.32
2019-04-11T15:44:44.561Z,15.70
2019-04-11T15:45:57.605Z,14.68
2019-04-11T15:47:04.043Z,14.33
2019-04-11T15:48:26.993Z,13.85
2019-04-11T15:50:09.350Z,15.13
2019-04-11T15:51:18.817Z,14.98
2019-04-11T15:52:24.030Z,14.03
2019-04-11T15:53:40.116Z,14.78
2019-04-11T15:55:05.454Z,15.40
2019-04-11T15:56:28.024Z,14.87